Strona główna
METAR-TAF:

METAR-TAF

Lotnisko :

Washington, Pensylwania, Stany Zjednoczone

Szerokość geograficzna: 40-08N, Długość geograficzna: 080-17W, wysokość: 361 m

Aktualna obserwacja pogody

Raport powstał 1 godzina i 9 minut temu, godzina 09:56 UTC
Wiatr 12 kt od południe w porywach dochodzący do 16 kt
Temperatura 10°C
Wilgotność 53%
Ciśnienie 1015 hPa
Widzialność: 16.1 km
Zachmurzenie całkowite na wysokości 4700 ft

METAR: KAFJ 180956Z AUTO 19012G16KT 10SM OVC047 10/01 A2998 RMK AO2 SLP155 T01000011 PWINO

czas: 06:05 (11:05 UTC)


TAF: brakujący

Obserwacja i prognoza pogody dla ponad 4000 lotnisk (raport METAR i TAF).

Dostępne stacje oznaczono żółtymi i czerwonymi punktami na mapie.

Najedź kursorem aby zobaczyć nazwę stacji.

Kliknij aby zobaczyć obserwacje i prognozy pogody.

Aby zmienić mapę: kliknij na zielony przycisk z czarnym krzyżykiem, aby powiększyć; na zielony przycisk z myślnikiem, aby pomniejszyć; na zielone strzałki, aby przejść do map sąsiednich.


METAR-TAF: